sensor_id;sensor_type;location;lat;lon;timestamp;P1;durP1;ratioP1;P2;durP2;ratioP2
26082;SDS011;13848;49.018;12.078;2022-09-09T00:01:58;1.63;;;1.33;;
26082;SDS011;13848;49.018;12.078;2022-09-09T00:04:30;3.75;;;1.73;;
26082;SDS011;13848;49.018;12.078;2022-09-09T00:07:03;1.85;;;1.50;;
26082;SDS011;13848;49.018;12.078;2022-09-09T00:09:34;2.75;;;1.90;;
26082;SDS011;13848;49.018;12.078;2022-09-09T00:12:06;4.30;;;1.70;;
26082;SDS011;13848;49.018;12.078;2022-09-09T00:14:39;1.85;;;1.30;;
26082;SDS011;13848;49.018;12.078;2022-09-09T00:17:14;2.40;;;1.50;;
26082;SDS011;13848;49.018;12.078;2022-09-09T00:19:53;2.95;;;1.48;;
26082;SDS011;13848;49.018;12.078;2022-09-09T00:22:25;2.03;;;1.50;;
26082;SDS011;13848;49.018;12.078;2022-09-09T00:24:55;2.63;;;1.60;;
26082;SDS011;13848;49.018;12.078;2022-09-09T00:27:25;3.08;;;1.63;;
26082;SDS011;13848;49.018;12.078;2022-09-09T00:29:56;4.00;;;1.70;;
26082;SDS011;13848;49.018;12.078;2022-09-09T00:32:27;3.88;;;1.70;;
26082;SDS011;13848;49.018;12.078;2022-09-09T00:34:56;3.25;;;1.40;;
26082;SDS011;13848;49.018;12.078;2022-09-09T00:37:26;2.42;;;1.60;;
26082;SDS011;13848;49.018;12.078;2022-09-09T00:39:55;3.13;;;2.00;;
26082;SDS011;13848;49.018;12.078;2022-09-09T00:42:26;2.65;;;1.65;;
26082;SDS011;13848;49.018;12.078;2022-09-09T00:45:07;3.20;;;2.30;;
26082;SDS011;13848;49.018;12.078;2022-09-09T00:47:44;3.88;;;1.65;;
26082;SDS011;13848;49.018;12.078;2022-09-09T00:50:15;2.83;;;2.10;;
26082;SDS011;13848;49.018;12.078;2022-09-09T00:52:52;4.18;;;2.55;;
26082;SDS011;13848;49.018;12.078;2022-09-09T00:55:25;4.30;;;2.55;;
26082;SDS011;13848;49.018;12.078;2022-09-09T00:58:00;3.65;;;2.97;;
26082;SDS011;13848;49.018;12.078;2022-09-09T01:00:27;4.00;;;3.10;;
26082;SDS011;13848;49.018;12.078;2022-09-09T01:03:02;7.07;;;4.30;;
26082;SDS011;13848;49.018;12.078;2022-09-09T01:05:42;7.78;;;4.63;;
26082;SDS011;13848;49.018;12.078;2022-09-09T01:08:13;6.45;;;5.50;;
26082;SDS011;13848;49.018;12.078;2022-09-09T01:10:53;7.70;;;6.00;;
26082;SDS011;13848;49.018;12.078;2022-09-09T01:13:22;9.18;;;5.95;;
26082;SDS011;13848;49.018;12.078;2022-09-09T01:15:50;7.97;;;6.22;;
26082;SDS011;13848;49.018;12.078;2022-09-09T01:18:17;7.55;;;5.80;;
26082;SDS011;13848;49.018;12.078;2022-09-09T01:20:49;8.48;;;6.47;;
26082;SDS011;13848;49.018;12.078;2022-09-09T01:23:26;11.70;;;7.25;;
26082;SDS011;13848;49.018;12.078;2022-09-09T01:26:16;11.52;;;6.82;;
26082;SDS011;13848;49.018;12.078;2022-09-09T01:28:46;9.77;;;7.28;;
26082;SDS011;13848;49.018;12.078;2022-09-09T01:31:14;8.45;;;6.53;;
26082;SDS011;13848;49.018;12.078;2022-09-09T01:33:43;9.25;;;6.25;;
26082;SDS011;13848;49.018;12.078;2022-09-09T01:36:10;6.22;;;5.55;;
26082;SDS011;13848;49.018;12.078;2022-09-09T01:38:40;9.77;;;5.63;;
26082;SDS011;13848;49.018;12.078;2022-09-09T01:41:06;9.27;;;6.47;;
26082;SDS011;13848;49.018;12.078;2022-09-09T01:43:34;8.32;;;6.65;;
26082;SDS011;13848;49.018;12.078;2022-09-09T01:46:00;10.70;;;6.88;;
26082;SDS011;13848;49.018;12.078;2022-09-09T01:48:27;8.85;;;6.97;;
26082;SDS011;13848;49.018;12.078;2022-09-09T01:50:53;9.60;;;7.15;;
26082;SDS011;13848;49.018;12.078;2022-09-09T01:53:20;9.43;;;6.95;;
26082;SDS011;13848;49.018;12.078;2022-09-09T01:55:50;7.78;;;6.47;;
26082;SDS011;13848;49.018;12.078;2022-09-09T01:58:29;8.07;;;6.38;;
26082;SDS011;13848;49.018;12.078;2022-09-09T02:01:02;9.43;;;6.90;;
26082;SDS011;13848;49.018;12.078;2022-09-09T02:03:33;9.50;;;6.15;;
26082;SDS011;13848;49.018;12.078;2022-09-09T02:06:06;8.20;;;6.40;;
26082;SDS011;13848;49.018;12.078;2022-09-09T02:08:42;7.20;;;6.30;;
26082;SDS011;13848;49.018;12.078;2022-09-09T02:11:13;8.60;;;6.55;;
26082;SDS011;13848;49.018;12.078;2022-09-09T02:13:40;10.38;;;6.97;;
26082;SDS011;13848;49.018;12.078;2022-09-09T02:16:12;9.63;;;6.88;;
26082;SDS011;13848;49.018;12.078;2022-09-09T02:18:44;7.78;;;6.15;;
26082;SDS011;13848;49.018;12.078;2022-09-09T02:21:15;9.68;;;6.82;;
26082;SDS011;13848;49.018;12.078;2022-09-09T02:23:43;9.52;;;6.78;;
26082;SDS011;13848;49.018;12.078;2022-09-09T02:26:12;7.95;;;6.95;;
26082;SDS011;13848;49.018;12.078;2022-09-09T02:28:40;10.55;;;7.38;;
26082;SDS011;13848;49.018;12.078;2022-09-09T02:31:06;13.88;;;6.78;;
26082;SDS011;13848;49.018;12.078;2022-09-09T02:33:35;9.13;;;6.70;;
26082;SDS011;13848;49.018;12.078;2022-09-09T02:36:05;9.68;;;7.50;;
26082;SDS011;13848;49.018;12.078;2022-09-09T02:38:35;9.65;;;7.22;;
26082;SDS011;13848;49.018;12.078;2022-09-09T02:41:03;8.93;;;7.00;;
26082;SDS011;13848;49.018;12.078;2022-09-09T02:43:30;8.50;;;6.95;;
26082;SDS011;13848;49.018;12.078;2022-09-09T02:45:58;9.75;;;7.32;;
26082;SDS011;13848;49.018;12.078;2022-09-09T02:48:31;8.85;;;6.88;;
26082;SDS011;13848;49.018;12.078;2022-09-09T02:51:10;8.07;;;6.55;;
26082;SDS011;13848;49.018;12.078;2022-09-09T02:53:46;8.43;;;6.63;;
26082;SDS011;13848;49.018;12.078;2022-09-09T02:56:19;7.40;;;5.82;;
26082;SDS011;13848;49.018;12.078;2022-09-09T02:58:50;9.88;;;6.97;;
26082;SDS011;13848;49.018;12.078;2022-09-09T03:01:16;8.38;;;6.13;;
26082;SDS011;13848;49.018;12.078;2022-09-09T03:03:46;8.20;;;6.13;;
26082;SDS011;13848;49.018;12.078;2022-09-09T03:06:16;7.55;;;6.35;;
26082;SDS011;13848;49.018;12.078;2022-09-09T03:08:42;9.77;;;6.70;;
26082;SDS011;13848;49.018;12.078;2022-09-09T03:11:08;8.55;;;6.53;;
26082;SDS011;13848;49.018;12.078;2022-09-09T03:13:34;8.73;;;6.40;;
26082;SDS011;13848;49.018;12.078;2022-09-09T03:16:00;9.40;;;7.05;;
26082;SDS011;13848;49.018;12.078;2022-09-09T03:18:26;8.15;;;6.00;;
26082;SDS011;13848;49.018;12.078;2022-09-09T03:20:54;10.35;;;6.22;;
26082;SDS011;13848;49.018;12.078;2022-09-09T03:23:20;10.27;;;6.70;;
26082;SDS011;13848;49.018;12.078;2022-09-09T03:25:46;7.97;;;6.30;;
26082;SDS011;13848;49.018;12.078;2022-09-09T03:28:12;8.20;;;6.60;;
26082;SDS011;13848;49.018;12.078;2022-09-09T03:30:38;10.30;;;6.88;;
26082;SDS011;13848;49.018;12.078;2022-09-09T03:33:04;9.15;;;6.65;;
26082;SDS011;13848;49.018;12.078;2022-09-09T03:35:30;8.57;;;6.50;;
26082;SDS011;13848;49.018;12.078;2022-09-09T03:37:57;9.77;;;7.20;;
26082;SDS011;13848;49.018;12.078;2022-09-09T03:40:23;8.98;;;6.72;;
26082;SDS011;13848;49.018;12.078;2022-09-09T03:42:49;8.15;;;6.90;;
26082;SDS011;13848;49.018;12.078;2022-09-09T03:45:15;8.57;;;6.75;;
26082;SDS011;13848;49.018;12.078;2022-09-09T03:47:41;8.82;;;6.93;;
26082;SDS011;13848;49.018;12.078;2022-09-09T03:50:08;9.90;;;7.68;;
26082;SDS011;13848;49.018;12.078;2022-09-09T03:52:34;9.23;;;7.50;;
26082;SDS011;13848;49.018;12.078;2022-09-09T03:55:02;9.30;;;7.43;;
26082;SDS011;13848;49.018;12.078;2022-09-09T03:57:28;9.52;;;7.10;;
26082;SDS011;13848;49.018;12.078;2022-09-09T03:59:54;11.77;;;7.57;;
26082;SDS011;13848;49.018;12.078;2022-09-09T04:02:20;10.07;;;7.45;;
26082;SDS011;13848;49.018;12.078;2022-09-09T04:04:46;16.52;;;7.85;;
26082;SDS011;13848;49.018;12.078;2022-09-09T04:07:12;10.00;;;7.63;;
26082;SDS011;13848;49.018;12.078;2022-09-09T04:09:38;10.20;;;7.75;;
26082;SDS011;13848;49.018;12.078;2022-09-09T04:12:06;10.30;;;7.55;;
26082;SDS011;13848;49.018;12.078;2022-09-09T04:14:32;11.30;;;8.32;;
26082;SDS011;13848;49.018;12.078;2022-09-09T04:16:58;10.90;;;7.50;;
26082;SDS011;13848;49.018;12.078;2022-09-09T04:19:24;11.23;;;7.88;;
26082;SDS011;13848;49.018;12.078;2022-09-09T04:21:50;9.93;;;7.47;;
26082;SDS011;13848;49.018;12.078;2022-09-09T04:24:16;13.32;;;8.57;;
26082;SDS011;13848;49.018;12.078;2022-09-09T04:26:41;9.82;;;7.57;;
26082;SDS011;13848;49.018;12.078;2022-09-09T04:29:09;9.88;;;7.80;;
26082;SDS011;13848;49.018;12.078;2022-09-09T04:31:35;11.45;;;8.30;;
26082;SDS011;13848;49.018;12.078;2022-09-09T04:34:01;11.02;;;7.85;;
26082;SDS011;13848;49.018;12.078;2022-09-09T04:36:27;10.55;;;8.00;;
26082;SDS011;13848;49.018;12.078;2022-09-09T04:38:53;10.95;;;8.10;;
26082;SDS011;13848;49.018;12.078;2022-09-09T04:41:19;9.55;;;7.20;;
26082;SDS011;13848;49.018;12.078;2022-09-09T04:43:44;8.73;;;7.07;;
26082;SDS011;13848;49.018;12.078;2022-09-09T04:46:12;11.68;;;8.25;;
26082;SDS011;13848;49.018;12.078;2022-09-09T04:48:38;11.23;;;8.75;;
26082;SDS011;13848;49.018;12.078;2022-09-09T04:51:04;11.90;;;8.02;;
26082;SDS011;13848;49.018;12.078;2022-09-09T04:53:31;11.30;;;8.02;;
26082;SDS011;13848;49.018;12.078;2022-09-09T04:56:01;11.02;;;8.52;;
26082;SDS011;13848;49.018;12.078;2022-09-09T04:58:28;14.13;;;8.68;;
26082;SDS011;13848;49.018;12.078;2022-09-09T05:00:54;10.18;;;7.75;;
26082;SDS011;13848;49.018;12.078;2022-09-09T05:03:21;12.13;;;7.63;;
26082;SDS011;13848;49.018;12.078;2022-09-09T05:05:47;13.15;;;8.50;;
26082;SDS011;13848;49.018;12.078;2022-09-09T05:08:13;10.63;;;8.10;;
26082;SDS011;13848;49.018;12.078;2022-09-09T05:10:39;12.25;;;8.50;;
26082;SDS011;13848;49.018;12.078;2022-09-09T05:13:05;11.45;;;8.68;;
26082;SDS011;13848;49.018;12.078;2022-09-09T05:15:31;11.13;;;7.18;;
26082;SDS011;13848;49.018;12.078;2022-09-09T05:17:57;8.95;;;6.97;;
26082;SDS011;13848;49.018;12.078;2022-09-09T05:20:25;7.53;;;6.43;;
26082;SDS011;13848;49.018;12.078;2022-09-09T05:22:52;11.38;;;7.30;;
26082;SDS011;13848;49.018;12.078;2022-09-09T05:25:18;9.23;;;6.68;;
26082;SDS011;13848;49.018;12.078;2022-09-09T05:27:44;9.95;;;6.72;;
26082;SDS011;13848;49.018;12.078;2022-09-09T05:30:10;8.40;;;6.25;;
26082;SDS011;13848;49.018;12.078;2022-09-09T05:32:36;8.27;;;6.28;;
26082;SDS011;13848;49.018;12.078;2022-09-09T05:35:03;7.88;;;6.30;;
26082;SDS011;13848;49.018;12.078;2022-09-09T05:37:31;8.40;;;5.90;;
26082;SDS011;13848;49.018;12.078;2022-09-09T05:39:57;7.28;;;6.30;;
26082;SDS011;13848;49.018;12.078;2022-09-09T05:42:23;10.90;;;7.68;;
26082;SDS011;13848;49.018;12.078;2022-09-09T05:44:49;8.27;;;6.85;;
26082;SDS011;13848;49.018;12.078;2022-09-09T05:47:15;9.23;;;6.88;;
26082;SDS011;13848;49.018;12.078;2022-09-09T05:49:41;8.80;;;6.80;;
26082;SDS011;13848;49.018;12.078;2022-09-09T05:52:07;10.60;;;6.50;;
26082;SDS011;13848;49.018;12.078;2022-09-09T05:54:34;8.90;;;6.97;;
26082;SDS011;13848;49.018;12.078;2022-09-09T05:57:00;8.90;;;6.65;;
26082;SDS011;13848;49.018;12.078;2022-09-09T05:59:26;7.70;;;6.28;;
26082;SDS011;13848;49.018;12.078;2022-09-09T06:01:52;13.43;;;7.60;;
26082;SDS011;13848;49.018;12.078;2022-09-09T06:04:18;10.07;;;6.72;;
26082;SDS011;13848;49.018;12.078;2022-09-09T06:06:44;8.07;;;6.50;;
26082;SDS011;13848;49.018;12.078;2022-09-09T06:09:10;8.35;;;6.28;;
26082;SDS011;13848;49.018;12.078;2022-09-09T06:11:38;7.88;;;6.38;;
26082;SDS011;13848;49.018;12.078;2022-09-09T06:14:05;8.80;;;6.30;;
26082;SDS011;13848;49.018;12.078;2022-09-09T06:16:32;8.80;;;6.82;;
26082;SDS011;13848;49.018;12.078;2022-09-09T06:18:59;7.85;;;6.25;;
26082;SDS011;13848;49.018;12.078;2022-09-09T06:21:25;8.50;;;6.35;;
26082;SDS011;13848;49.018;12.078;2022-09-09T06:23:52;9.02;;;6.38;;
26082;SDS011;13848;49.018;12.078;2022-09-09T06:26:19;7.55;;;5.80;;
26082;SDS011;13848;49.018;12.078;2022-09-09T06:28:48;8.65;;;6.22;;
26082;SDS011;13848;49.018;12.078;2022-09-09T06:31:16;10.88;;;6.03;;
26082;SDS011;13848;49.018;12.078;2022-09-09T06:33:43;9.82;;;6.35;;
26082;SDS011;13848;49.018;12.078;2022-09-09T06:36:10;8.43;;;5.93;;
26082;SDS011;13848;49.018;12.078;2022-09-09T06:38:37;8.57;;;6.47;;
26082;SDS011;13848;49.018;12.078;2022-09-09T06:41:03;7.47;;;6.00;;
26082;SDS011;13848;49.018;12.078;2022-09-09T06:43:30;10.02;;;5.45;;
26082;SDS011;13848;49.018;12.078;2022-09-09T06:45:58;9.40;;;6.03;;
26082;SDS011;13848;49.018;12.078;2022-09-09T06:48:25;7.47;;;6.03;;
26082;SDS011;13848;49.018;12.078;2022-09-09T06:50:51;7.07;;;5.68;;
26082;SDS011;13848;49.018;12.078;2022-09-09T06:53:25;9.98;;;6.70;;
26082;SDS011;13848;49.018;12.078;2022-09-09T06:55:51;7.65;;;5.88;;
26082;SDS011;13848;49.018;12.078;2022-09-09T06:58:17;8.30;;;5.63;;
26082;SDS011;13848;49.018;12.078;2022-09-09T07:00:43;8.10;;;5.65;;
26082;SDS011;13848;49.018;12.078;2022-09-09T07:03:11;7.90;;;5.53;;
26082;SDS011;13848;49.018;12.078;2022-09-09T07:05:37;7.85;;;5.70;;
26082;SDS011;13848;49.018;12.078;2022-09-09T07:08:03;8.40;;;6.05;;
26082;SDS011;13848;49.018;12.078;2022-09-09T07:10:29;9.50;;;5.65;;
26082;SDS011;13848;49.018;12.078;2022-09-09T07:12:55;7.18;;;5.85;;
26082;SDS011;13848;49.018;12.078;2022-09-09T07:15:21;7.88;;;5.72;;
26082;SDS011;13848;49.018;12.078;2022-09-09T07:17:47;6.07;;;5.18;;
26082;SDS011;13848;49.018;12.078;2022-09-09T07:20:14;5.93;;;4.63;;
26082;SDS011;13848;49.018;12.078;2022-09-09T07:22:40;5.63;;;4.80;;
26082;SDS011;13848;49.018;12.078;2022-09-09T07:25:07;6.85;;;5.30;;
26082;SDS011;13848;49.018;12.078;2022-09-09T07:27:33;5.97;;;4.88;;
26082;SDS011;13848;49.018;12.078;2022-09-09T07:29:59;6.45;;;4.80;;
26082;SDS011;13848;49.018;12.078;2022-09-09T07:32:25;8.55;;;5.97;;
26082;SDS011;13848;49.018;12.078;2022-09-09T07:34:51;7.40;;;5.55;;
26082;SDS011;13848;49.018;12.078;2022-09-09T07:37:18;6.57;;;5.45;;
26082;SDS011;13848;49.018;12.078;2022-09-09T07:39:44;8.13;;;5.88;;
26082;SDS011;13848;49.018;12.078;2022-09-09T07:42:10;8.65;;;5.95;;
26082;SDS011;13848;49.018;12.078;2022-09-09T07:44:36;9.85;;;6.47;;
26082;SDS011;13848;49.018;12.078;2022-09-09T07:47:03;6.88;;;6.00;;
26082;SDS011;13848;49.018;12.078;2022-09-09T07:49:29;7.78;;;5.70;;
26082;SDS011;13848;49.018;12.078;2022-09-09T07:51:55;7.32;;;5.57;;
26082;SDS011;13848;49.018;12.078;2022-09-09T07:54:22;6.30;;;5.50;;
26082;SDS011;13848;49.018;12.078;2022-09-09T07:56:48;6.32;;;5.63;;
26082;SDS011;13848;49.018;12.078;2022-09-09T07:59:14;8.73;;;5.60;;
26082;SDS011;13848;49.018;12.078;2022-09-09T08:01:42;6.63;;;5.32;;
26082;SDS011;13848;49.018;12.078;2022-09-09T08:04:11;7.68;;;5.18;;
26082;SDS011;13848;49.018;12.078;2022-09-09T08:06:40;6.15;;;4.78;;
26082;SDS011;13848;49.018;12.078;2022-09-09T08:09:07;7.22;;;4.57;;
26082;SDS011;13848;49.018;12.078;2022-09-09T08:11:36;5.00;;;4.00;;
26082;SDS011;13848;49.018;12.078;2022-09-09T08:14:02;5.63;;;4.40;;
26082;SDS011;13848;49.018;12.078;2022-09-09T08:16:30;5.40;;;4.20;;
26082;SDS011;13848;49.018;12.078;2022-09-09T08:18:57;5.80;;;4.30;;
26082;SDS011;13848;49.018;12.078;2022-09-09T08:21:24;7.43;;;4.07;;
26082;SDS011;13848;49.018;12.078;2022-09-09T08:23:52;6.10;;;4.30;;
26082;SDS011;13848;49.018;12.078;2022-09-09T08:26:20;5.00;;;4.13;;
26082;SDS011;13848;49.018;12.078;2022-09-09T08:28:49;5.28;;;3.95;;
26082;SDS011;13848;49.018;12.078;2022-09-09T08:31:16;4.97;;;3.85;;
26082;SDS011;13848;49.018;12.078;2022-09-09T08:33:44;5.13;;;3.40;;
26082;SDS011;13848;49.018;12.078;2022-09-09T08:36:11;4.60;;;3.65;;
26082;SDS011;13848;49.018;12.078;2022-09-09T08:38:38;5.88;;;3.10;;
26082;SDS011;13848;49.018;12.078;2022-09-09T08:41:07;4.78;;;3.33;;
26082;SDS011;13848;49.018;12.078;2022-09-09T08:43:42;6.03;;;3.38;;
26082;SDS011;13848;49.018;12.078;2022-09-09T08:46:13;5.68;;;3.22;;
26082;SDS011;13848;49.018;12.078;2022-09-09T08:48:48;4.25;;;3.00;;
26082;SDS011;13848;49.018;12.078;2022-09-09T08:51:22;4.38;;;2.58;;
26082;SDS011;13848;49.018;12.078;2022-09-09T08:53:51;3.72;;;3.05;;
26082;SDS011;13848;49.018;12.078;2022-09-09T08:56:18;4.93;;;3.38;;
26082;SDS011;13848;49.018;12.078;2022-09-09T08:58:48;3.92;;;3.35;;
26082;SDS011;13848;49.018;12.078;2022-09-09T09:01:19;6.43;;;3.78;;
26082;SDS011;13848;49.018;12.078;2022-09-09T09:03:57;5.03;;;3.33;;
26082;SDS011;13848;49.018;12.078;2022-09-09T09:06:33;7.22;;;3.45;;
26082;SDS011;13848;49.018;12.078;2022-09-09T09:09:10;4.05;;;3.20;;
26082;SDS011;13848;49.018;12.078;2022-09-09T09:11:52;2.85;;;2.40;;
26082;SDS011;13848;49.018;12.078;2022-09-09T09:14:20;5.00;;;2.83;;
26082;SDS011;13848;49.018;12.078;2022-09-09T09:16:51;3.60;;;3.08;;
26082;SDS011;13848;49.018;12.078;2022-09-09T09:19:18;3.95;;;3.00;;
26082;SDS011;13848;49.018;12.078;2022-09-09T09:21:47;2.67;;;2.42;;
26082;SDS011;13848;49.018;12.078;2022-09-09T09:24:18;3.80;;;2.70;;
26082;SDS011;13848;49.018;12.078;2022-09-09T09:26:47;3.67;;;2.80;;
26082;SDS011;13848;49.018;12.078;2022-09-09T09:29:14;3.70;;;3.03;;
26082;SDS011;13848;49.018;12.078;2022-09-09T09:31:43;3.67;;;2.90;;
26082;SDS011;13848;49.018;12.078;2022-09-09T09:34:12;6.43;;;2.70;;
26082;SDS011;13848;49.018;12.078;2022-09-09T09:36:39;3.70;;;2.58;;
26082;SDS011;13848;49.018;12.078;2022-09-09T09:39:08;4.43;;;3.00;;
26082;SDS011;13848;49.018;12.078;2022-09-09T09:41:34;4.88;;;2.80;;
26082;SDS011;13848;49.018;12.078;2022-09-09T09:44:03;8.30;;;3.00;;
26082;SDS011;13848;49.018;12.078;2022-09-09T09:46:30;4.75;;;2.40;;
26082;SDS011;13848;49.018;12.078;2022-09-09T09:48:57;3.60;;;2.60;;
26082;SDS011;13848;49.018;12.078;2022-09-09T09:51:25;2.47;;;1.95;;
26082;SDS011;13848;49.018;12.078;2022-09-09T09:53:53;3.35;;;2.10;;
26082;SDS011;13848;49.018;12.078;2022-09-09T09:56:28;3.78;;;2.30;;
26082;SDS011;13848;49.018;12.078;2022-09-09T09:58:54;2.38;;;1.95;;
26082;SDS011;13848;49.018;12.078;2022-09-09T10:01:22;2.50;;;1.70;;
26082;SDS011;13848;49.018;12.078;2022-09-09T10:03:50;3.95;;;1.85;;
26082;SDS011;13848;49.018;12.078;2022-09-09T10:06:28;2.33;;;1.60;;
26082;SDS011;13848;49.018;12.078;2022-09-09T10:08:56;2.67;;;1.20;;
26082;SDS011;13848;49.018;12.078;2022-09-09T10:11:26;2.78;;;1.35;;
26082;SDS011;13848;49.018;12.078;2022-09-09T10:14:00;2.70;;;1.48;;
26082;SDS011;13848;49.018;12.078;2022-09-09T10:16:38;2.83;;;1.20;;
26082;SDS011;13848;49.018;12.078;2022-09-09T10:19:13;3.47;;;1.65;;
26082;SDS011;13848;49.018;12.078;2022-09-09T10:27:22;1.90;;;1.23;;
26082;SDS011;13848;49.018;12.078;2022-09-09T10:30:03;2.42;;;1.30;;
26082;SDS011;13848;49.018;12.078;2022-09-09T10:32:40;2.33;;;1.30;;
26082;SDS011;13848;49.018;12.078;2022-09-09T10:35:12;3.38;;;1.30;;
26082;SDS011;13848;49.018;12.078;2022-09-09T10:37:48;1.77;;;1.17;;
26082;SDS011;13848;49.018;12.078;2022-09-09T10:40:27;2.53;;;1.17;;
26082;SDS011;13848;49.018;12.078;2022-09-09T10:42:59;2.85;;;1.40;;
26082;SDS011;13848;49.018;12.078;2022-09-09T10:45:36;1.80;;;1.13;;
26082;SDS011;13848;49.018;12.078;2022-09-09T10:51:02;1.15;;;0.90;;
26082;SDS011;13848;49.018;12.078;2022-09-09T10:53:43;2.15;;;1.23;;
26082;SDS011;13848;49.018;12.078;2022-09-09T10:56:18;1.60;;;1.05;;
26082;SDS011;13848;49.018;12.078;2022-09-09T10:58:47;2.08;;;1.20;;
26082;SDS011;13848;49.018;12.078;2022-09-09T11:01:18;5.67;;;1.23;;
26082;SDS011;13848;49.018;12.078;2022-09-09T11:03:49;2.60;;;1.30;;
26082;SDS011;13848;49.018;12.078;2022-09-09T11:06:20;1.30;;;1.10;;
26082;SDS011;13848;49.018;12.078;2022-09-09T11:08:53;2.72;;;1.15;;
26082;SDS011;13848;49.018;12.078;2022-09-09T11:11:21;1.65;;;1.20;;
26082;SDS011;13848;49.018;12.078;2022-09-09T11:13:53;1.77;;;1.00;;
26082;SDS011;13848;49.018;12.078;2022-09-09T11:16:24;1.75;;;1.20;;
26082;SDS011;13848;49.018;12.078;2022-09-09T11:18:55;1.23;;;0.93;;
26082;SDS011;13848;49.018;12.078;2022-09-09T11:21:27;1.10;;;1.00;;
26082;SDS011;13848;49.018;12.078;2022-09-09T11:23:57;1.00;;;0.90;;
26082;SDS011;13848;49.018;12.078;2022-09-09T11:26:29;1.90;;;0.90;;
26082;SDS011;13848;49.018;12.078;2022-09-09T11:29:02;2.60;;;0.97;;
26082;SDS011;13848;49.018;12.078;2022-09-09T11:31:44;1.40;;;0.90;;
26082;SDS011;13848;49.018;12.078;2022-09-09T11:34:16;1.13;;;0.90;;
26082;SDS011;13848;49.018;12.078;2022-09-09T11:36:56;1.05;;;0.95;;
26082;SDS011;13848;49.018;12.078;2022-09-09T11:39:38;1.00;;;0.90;;
26082;SDS011;13848;49.018;12.078;2022-09-09T11:42:18;3.47;;;1.42;;
26082;SDS011;13848;49.018;12.078;2022-09-09T11:44:46;2.72;;;1.60;;
26082;SDS011;13848;49.018;12.078;2022-09-09T11:47:18;1.65;;;1.17;;
26082;SDS011;13848;49.018;12.078;2022-09-09T11:49:46;2.03;;;1.50;;
26082;SDS011;13848;49.018;12.078;2022-09-09T11:52:12;1.95;;;1.15;;
26082;SDS011;13848;49.018;12.078;2022-09-09T11:54:46;1.77;;;1.08;;
26082;SDS011;13848;49.018;12.078;2022-09-09T11:57:17;1.60;;;1.13;;
26082;SDS011;13848;49.018;12.078;2022-09-09T11:59:51;1.25;;;1.02;;
26082;SDS011;13848;49.018;12.078;2022-09-09T12:02:18;2.92;;;1.08;;
26082;SDS011;13848;49.018;12.078;2022-09-09T12:04:49;2.03;;;1.30;;
26082;SDS011;13848;49.018;12.078;2022-09-09T12:07:32;1.75;;;1.27;;
26082;SDS011;13848;49.018;12.078;2022-09-09T12:10:03;2.75;;;1.20;;
26082;SDS011;13848;49.018;12.078;2022-09-09T12:12:44;1.83;;;1.00;;
26082;SDS011;13848;49.018;12.078;2022-09-09T12:15:22;2.00;;;1.05;;
26082;SDS011;13848;49.018;12.078;2022-09-09T12:17:50;2.78;;;1.10;;
26082;SDS011;13848;49.018;12.078;2022-09-09T12:20:18;1.45;;;1.10;;
26082;SDS011;13848;49.018;12.078;2022-09-09T12:22:59;2.47;;;1.02;;
26082;SDS011;13848;49.018;12.078;2022-09-09T12:28:49;1.52;;;0.88;;
26082;SDS011;13848;49.018;12.078;2022-09-09T12:31:22;2.20;;;0.90;;
26082;SDS011;13848;49.018;12.078;2022-09-09T12:33:52;2.25;;;1.17;;
26082;SDS011;13848;49.018;12.078;2022-09-09T12:36:18;2.40;;;1.20;;
26082;SDS011;13848;49.018;12.078;2022-09-09T12:38:47;2.63;;;1.27;;
26082;SDS011;13848;49.018;12.078;2022-09-09T12:41:21;3.13;;;1.08;;
26082;SDS011;13848;49.018;12.078;2022-09-09T12:43:49;3.90;;;1.15;;
26082;SDS011;13848;49.018;12.078;2022-09-09T12:46:18;3.53;;;1.25;;
26082;SDS011;13848;49.018;12.078;2022-09-09T12:48:49;1.83;;;1.13;;
26082;SDS011;13848;49.018;12.078;2022-09-09T12:51:17;4.40;;;1.60;;
26082;SDS011;13848;49.018;12.078;2022-09-09T12:53:46;1.60;;;1.10;;
26082;SDS011;13848;49.018;12.078;2022-09-09T12:56:18;2.30;;;1.13;;
26082;SDS011;13848;49.018;12.078;2022-09-09T12:58:47;1.20;;;1.00;;
26082;SDS011;13848;49.018;12.078;2022-09-09T13:01:18;3.47;;;1.35;;
26082;SDS011;13848;49.018;12.078;2022-09-09T13:06:16;1.35;;;0.95;;
26082;SDS011;13848;49.018;12.078;2022-09-09T13:08:45;1.63;;;1.00;;
26082;SDS011;13848;49.018;12.078;2022-09-09T13:11:12;1.35;;;1.00;;
26082;SDS011;13848;49.018;12.078;2022-09-09T13:13:42;1.58;;;1.00;;
26082;SDS011;13848;49.018;12.078;2022-09-09T13:16:20;1.60;;;1.05;;
26082;SDS011;13848;49.018;12.078;2022-09-09T13:18:47;1.70;;;1.00;;
26082;SDS011;13848;49.018;12.078;2022-09-09T13:21:13;1.55;;;1.10;;
26082;SDS011;13848;49.018;12.078;2022-09-09T13:23:39;3.35;;;0.90;;
26082;SDS011;13848;49.018;12.078;2022-09-09T13:26:06;1.83;;;1.00;;
26082;SDS011;13848;49.018;12.078;2022-09-09T13:28:45;2.65;;;0.80;;
26082;SDS011;13848;49.018;12.078;2022-09-09T13:31:19;1.67;;;0.88;;
26082;SDS011;13848;49.018;12.078;2022-09-09T13:33:47;1.35;;;0.80;;
26082;SDS011;13848;49.018;12.078;2022-09-09T13:36:13;2.20;;;0.80;;
26082;SDS011;13848;49.018;12.078;2022-09-09T13:38:40;1.00;;;0.90;;
26082;SDS011;13848;49.018;12.078;2022-09-09T13:41:19;1.70;;;0.68;;
26082;SDS011;13848;49.018;12.078;2022-09-09T13:43:47;1.83;;;0.90;;
26082;SDS011;13848;49.018;12.078;2022-09-09T13:46:27;2.20;;;1.10;;
26082;SDS011;13848;49.018;12.078;2022-09-09T13:48:59;2.22;;;1.10;;
26082;SDS011;13848;49.018;12.078;2022-09-09T13:51:29;2.75;;;1.10;;
26082;SDS011;13848;49.018;12.078;2022-09-09T13:53:58;1.40;;;0.93;;
26082;SDS011;13848;49.018;12.078;2022-09-09T13:56:24;4.10;;;1.20;;
26082;SDS011;13848;49.018;12.078;2022-09-09T13:58:50;5.00;;;1.88;;
26082;SDS011;13848;49.018;12.078;2022-09-09T14:01:16;2.00;;;1.00;;
26082;SDS011;13848;49.018;12.078;2022-09-09T14:03:44;3.50;;;1.25;;
26082;SDS011;13848;49.018;12.078;2022-09-09T14:06:10;2.45;;;0.90;;
26082;SDS011;13848;49.018;12.078;2022-09-09T14:08:36;1.88;;;1.08;;
26082;SDS011;13848;49.018;12.078;2022-09-09T14:11:02;1.80;;;1.00;;
26082;SDS011;13848;49.018;12.078;2022-09-09T14:13:28;1.48;;;1.00;;
26082;SDS011;13848;49.018;12.078;2022-09-09T14:15:54;1.88;;;0.95;;
26082;SDS011;13848;49.018;12.078;2022-09-09T14:18:20;2.30;;;1.00;;
26082;SDS011;13848;49.018;12.078;2022-09-09T14:20:48;1.73;;;1.05;;
26082;SDS011;13848;49.018;12.078;2022-09-09T14:23:14;2.42;;;1.00;;
26082;SDS011;13848;49.018;12.078;2022-09-09T14:25:40;5.00;;;0.90;;
26082;SDS011;13848;49.018;12.078;2022-09-09T14:28:08;1.83;;;0.90;;
26082;SDS011;13848;49.018;12.078;2022-09-09T14:30:35;3.20;;;0.90;;
26082;SDS011;13848;49.018;12.078;2022-09-09T14:33:02;4.25;;;1.30;;
26082;SDS011;13848;49.018;12.078;2022-09-09T14:35:28;4.97;;;1.00;;
26082;SDS011;13848;49.018;12.078;2022-09-09T14:37:56;2.88;;;1.05;;
26082;SDS011;13848;49.018;12.078;2022-09-09T14:40:21;2.10;;;0.90;;
26082;SDS011;13848;49.018;12.078;2022-09-09T14:42:50;4.25;;;1.25;;
26082;SDS011;13848;49.018;12.078;2022-09-09T14:45:17;1.85;;;0.90;;
26082;SDS011;13848;49.018;12.078;2022-09-09T14:47:43;1.38;;;0.90;;
26082;SDS011;13848;49.018;12.078;2022-09-09T14:50:09;2.55;;;0.80;;
26082;SDS011;13848;49.018;12.078;2022-09-09T14:52:35;2.28;;;1.10;;
26082;SDS011;13848;49.018;12.078;2022-09-09T14:55:03;1.52;;;1.10;;
26082;SDS011;13848;49.018;12.078;2022-09-09T14:57:29;5.43;;;1.20;;
26082;SDS011;13848;49.018;12.078;2022-09-09T14:59:55;2.42;;;1.10;;